sensor_id;sensor_type;location;lat;lon;timestamp;P1;durP1;ratioP1;P2;durP2;ratioP2
2177;SDS011;1095;50.992;6.798;2023-01-13T00:01:35;1.70;;;1.00;;
2177;SDS011;1095;50.992;6.798;2023-01-13T00:04:02;2.13;;;0.73;;
2177;SDS011;1095;50.992;6.798;2023-01-13T00:06:30;0.88;;;0.75;;
2177;SDS011;1095;50.992;6.798;2023-01-13T00:08:56;2.53;;;0.70;;
2177;SDS011;1095;50.992;6.798;2023-01-13T00:11:23;3.10;;;1.20;;
2177;SDS011;1095;50.992;6.798;2023-01-13T00:13:50;0.65;;;0.60;;
2177;SDS011;1095;50.992;6.798;2023-01-13T00:16:20;2.15;;;0.85;;
2177;SDS011;1095;50.992;6.798;2023-01-13T00:18:47;2.65;;;1.15;;
2177;SDS011;1095;50.992;6.798;2023-01-13T00:21:16;1.45;;;1.08;;
2177;SDS011;1095;50.992;6.798;2023-01-13T00:23:43;1.27;;;1.17;;
2177;SDS011;1095;50.992;6.798;2023-01-13T00:26:11;1.17;;;0.82;;
2177;SDS011;1095;50.992;6.798;2023-01-13T00:28:39;1.13;;;1.02;;
2177;SDS011;1095;50.992;6.798;2023-01-13T00:31:07;3.72;;;0.88;;
2177;SDS011;1095;50.992;6.798;2023-01-13T00:33:36;3.45;;;0.98;;
2177;SDS011;1095;50.992;6.798;2023-01-13T00:36:04;0.68;;;0.68;;
2177;SDS011;1095;50.992;6.798;2023-01-13T00:38:33;1.55;;;0.50;;
2177;SDS011;1095;50.992;6.798;2023-01-13T00:41:02;1.02;;;0.60;;
2177;SDS011;1095;50.992;6.798;2023-01-13T00:43:31;3.40;;;0.88;;
2177;SDS011;1095;50.992;6.798;2023-01-13T00:45:58;1.55;;;0.63;;
2177;SDS011;1095;50.992;6.798;2023-01-13T00:48:26;0.80;;;0.73;;
2177;SDS011;1095;50.992;6.798;2023-01-13T00:50:55;2.60;;;1.15;;
2177;SDS011;1095;50.992;6.798;2023-01-13T00:53:23;1.00;;;0.95;;
2177;SDS011;1095;50.992;6.798;2023-01-13T00:55:57;2.17;;;1.33;;
2177;SDS011;1095;50.992;6.798;2023-01-13T00:58:24;1.20;;;0.90;;
2177;SDS011;1095;50.992;6.798;2023-01-13T01:00:51;2.38;;;1.00;;
2177;SDS011;1095;50.992;6.798;2023-01-13T01:03:18;1.48;;;1.10;;
2177;SDS011;1095;50.992;6.798;2023-01-13T01:05:44;1.80;;;0.80;;
2177;SDS011;1095;50.992;6.798;2023-01-13T01:08:13;2.35;;;0.90;;
2177;SDS011;1095;50.992;6.798;2023-01-13T01:10:40;2.03;;;0.90;;
2177;SDS011;1095;50.992;6.798;2023-01-13T01:13:06;2.45;;;1.02;;
2177;SDS011;1095;50.992;6.798;2023-01-13T01:15:38;1.63;;;0.98;;
2177;SDS011;1095;50.992;6.798;2023-01-13T01:18:05;3.03;;;1.08;;
2177;SDS011;1095;50.992;6.798;2023-01-13T01:20:32;2.33;;;0.98;;
2177;SDS011;1095;50.992;6.798;2023-01-13T01:22:58;3.20;;;1.15;;
2177;SDS011;1095;50.992;6.798;2023-01-13T01:25:26;1.85;;;1.10;;
2177;SDS011;1095;50.992;6.798;2023-01-13T01:27:53;3.67;;;1.08;;
2177;SDS011;1095;50.992;6.798;2023-01-13T01:30:19;2.75;;;1.15;;
2177;SDS011;1095;50.992;6.798;2023-01-13T01:32:46;4.28;;;1.73;;
2177;SDS011;1095;50.992;6.798;2023-01-13T01:35:13;5.05;;;1.50;;
2177;SDS011;1095;50.992;6.798;2023-01-13T01:37:39;3.88;;;1.52;;
2177;SDS011;1095;50.992;6.798;2023-01-13T01:40:06;3.05;;;1.42;;
2177;SDS011;1095;50.992;6.798;2023-01-13T01:42:35;6.20;;;1.80;;
2177;SDS011;1095;50.992;6.798;2023-01-13T01:45:19;4.22;;;1.48;;
2177;SDS011;1095;50.992;6.798;2023-01-13T01:47:48;3.00;;;1.23;;
2177;SDS011;1095;50.992;6.798;2023-01-13T01:50:24;2.90;;;1.17;;
2177;SDS011;1095;50.992;6.798;2023-01-13T01:52:56;3.30;;;1.35;;
2177;SDS011;1095;50.992;6.798;2023-01-13T01:55:27;7.63;;;1.67;;
2177;SDS011;1095;50.992;6.798;2023-01-13T01:58:00;4.13;;;1.40;;
2177;SDS011;1095;50.992;6.798;2023-01-13T02:00:31;3.25;;;1.58;;
2177;SDS011;1095;50.992;6.798;2023-01-13T02:02:58;1.73;;;0.75;;
2177;SDS011;1095;50.992;6.798;2023-01-13T02:05:30;2.47;;;1.20;;
2177;SDS011;1095;50.992;6.798;2023-01-13T02:07:58;2.97;;;1.25;;
2177;SDS011;1095;50.992;6.798;2023-01-13T02:10:29;3.05;;;1.48;;
2177;SDS011;1095;50.992;6.798;2023-01-13T02:12:59;2.65;;;1.10;;
2177;SDS011;1095;50.992;6.798;2023-01-13T02:15:30;4.38;;;1.75;;
2177;SDS011;1095;50.992;6.798;2023-01-13T02:18:05;2.95;;;1.10;;
2177;SDS011;1095;50.992;6.798;2023-01-13T02:20:49;2.70;;;1.15;;
2177;SDS011;1095;50.992;6.798;2023-01-13T02:29:41;4.38;;;0.82;;
2177;SDS011;1095;50.992;6.798;2023-01-13T02:32:36;4.15;;;1.52;;
2177;SDS011;1095;50.992;6.798;2023-01-13T02:35:10;2.97;;;1.50;;
2177;SDS011;1095;50.992;6.798;2023-01-13T02:37:41;3.80;;;1.10;;
2177;SDS011;1095;50.992;6.798;2023-01-13T02:40:10;3.47;;;1.10;;
2177;SDS011;1095;50.992;6.798;2023-01-13T02:42:43;2.33;;;1.38;;
2177;SDS011;1095;50.992;6.798;2023-01-13T02:45:34;2.88;;;0.95;;
2177;SDS011;1095;50.992;6.798;2023-01-13T02:48:05;3.80;;;1.20;;
2177;SDS011;1095;50.992;6.798;2023-01-13T02:50:34;3.80;;;1.38;;
2177;SDS011;1095;50.992;6.798;2023-01-13T02:53:07;2.05;;;1.35;;
2177;SDS011;1095;50.992;6.798;2023-01-13T02:55:38;4.57;;;1.55;;
2177;SDS011;1095;50.992;6.798;2023-01-13T02:58:11;4.95;;;1.42;;
2177;SDS011;1095;50.992;6.798;2023-01-13T03:00:42;5.28;;;1.70;;
2177;SDS011;1095;50.992;6.798;2023-01-13T03:03:10;5.82;;;2.13;;
2177;SDS011;1095;50.992;6.798;2023-01-13T03:05:37;4.68;;;1.65;;
2177;SDS011;1095;50.992;6.798;2023-01-13T03:08:10;5.03;;;1.52;;
2177;SDS011;1095;50.992;6.798;2023-01-13T03:10:49;5.75;;;1.83;;
2177;SDS011;1095;50.992;6.798;2023-01-13T03:13:44;6.78;;;2.10;;
2177;SDS011;1095;50.992;6.798;2023-01-13T03:16:28;7.38;;;1.98;;
2177;SDS011;1095;50.992;6.798;2023-01-13T03:19:05;5.07;;;1.88;;
2177;SDS011;1095;50.992;6.798;2023-01-13T03:21:41;7.93;;;2.38;;
2177;SDS011;1095;50.992;6.798;2023-01-13T03:24:15;5.90;;;2.13;;
2177;SDS011;1095;50.992;6.798;2023-01-13T03:26:45;6.57;;;2.10;;
2177;SDS011;1095;50.992;6.798;2023-01-13T03:29:17;7.38;;;2.10;;
2177;SDS011;1095;50.992;6.798;2023-01-13T03:31:51;6.82;;;2.00;;
2177;SDS011;1095;50.992;6.798;2023-01-13T03:34:22;8.75;;;2.55;;
2177;SDS011;1095;50.992;6.798;2023-01-13T03:36:53;4.77;;;1.50;;
2177;SDS011;1095;50.992;6.798;2023-01-13T03:39:24;4.68;;;1.77;;
2177;SDS011;1095;50.992;6.798;2023-01-13T03:41:56;8.82;;;2.22;;
2177;SDS011;1095;50.992;6.798;2023-01-13T03:44:28;8.82;;;2.35;;
2177;SDS011;1095;50.992;6.798;2023-01-13T03:47:01;7.82;;;1.95;;
2177;SDS011;1095;50.992;6.798;2023-01-13T03:49:36;13.70;;;3.72;;
2177;SDS011;1095;50.992;6.798;2023-01-13T03:52:09;6.55;;;2.60;;
2177;SDS011;1095;50.992;6.798;2023-01-13T03:54:43;8.40;;;2.35;;
2177;SDS011;1095;50.992;6.798;2023-01-13T03:57:16;8.70;;;2.60;;
2177;SDS011;1095;50.992;6.798;2023-01-13T03:59:46;7.82;;;2.10;;
2177;SDS011;1095;50.992;6.798;2023-01-13T04:02:18;8.32;;;2.78;;
2177;SDS011;1095;50.992;6.798;2023-01-13T04:04:51;8.95;;;2.83;;
2177;SDS011;1095;50.992;6.798;2023-01-13T04:07:26;10.25;;;3.00;;
2177;SDS011;1095;50.992;6.798;2023-01-13T04:09:58;11.82;;;3.15;;
2177;SDS011;1095;50.992;6.798;2023-01-13T04:12:28;10.02;;;3.35;;
2177;SDS011;1095;50.992;6.798;2023-01-13T04:15:18;16.08;;;3.88;;
2177;SDS011;1095;50.992;6.798;2023-01-13T04:17:48;11.80;;;3.03;;
2177;SDS011;1095;50.992;6.798;2023-01-13T04:20:15;14.35;;;3.50;;
2177;SDS011;1095;50.992;6.798;2023-01-13T04:22:42;9.57;;;2.78;;
2177;SDS011;1095;50.992;6.798;2023-01-13T04:25:09;10.52;;;3.30;;
2177;SDS011;1095;50.992;6.798;2023-01-13T04:27:36;13.32;;;3.50;;
2177;SDS011;1095;50.992;6.798;2023-01-13T04:30:03;12.05;;;3.30;;
2177;SDS011;1095;50.992;6.798;2023-01-13T04:32:30;12.23;;;3.10;;
2177;SDS011;1095;50.992;6.798;2023-01-13T04:34:58;12.93;;;3.25;;
2177;SDS011;1095;50.992;6.798;2023-01-13T04:37:25;13.88;;;3.10;;
2177;SDS011;1095;50.992;6.798;2023-01-13T04:39:51;12.35;;;2.92;;
2177;SDS011;1095;50.992;6.798;2023-01-13T04:42:18;13.23;;;3.42;;
2177;SDS011;1095;50.992;6.798;2023-01-13T04:44:45;14.00;;;3.63;;
2177;SDS011;1095;50.992;6.798;2023-01-13T04:47:11;13.05;;;3.25;;
2177;SDS011;1095;50.992;6.798;2023-01-13T04:49:38;13.05;;;3.63;;
2177;SDS011;1095;50.992;6.798;2023-01-13T04:52:06;18.55;;;3.45;;
2177;SDS011;1095;50.992;6.798;2023-01-13T04:54:33;18.55;;;3.78;;
2177;SDS011;1095;50.992;6.798;2023-01-13T04:56:59;13.98;;;3.78;;
2177;SDS011;1095;50.992;6.798;2023-01-13T04:59:26;12.73;;;3.20;;
2177;SDS011;1095;50.992;6.798;2023-01-13T05:01:53;13.55;;;3.88;;
2177;SDS011;1095;50.992;6.798;2023-01-13T05:04:19;7.60;;;2.92;;
2177;SDS011;1095;50.992;6.798;2023-01-13T05:06:46;12.77;;;3.55;;
2177;SDS011;1095;50.992;6.798;2023-01-13T05:09:14;16.48;;;3.50;;
2177;SDS011;1095;50.992;6.798;2023-01-13T05:11:40;13.48;;;4.20;;
2177;SDS011;1095;50.992;6.798;2023-01-13T05:14:25;15.88;;;3.55;;
2177;SDS011;1095;50.992;6.798;2023-01-13T05:17:09;12.55;;;4.38;;
2177;SDS011;1095;50.992;6.798;2023-01-13T05:19:40;16.38;;;4.05;;
2177;SDS011;1095;50.992;6.798;2023-01-13T05:22:06;15.18;;;3.67;;
2177;SDS011;1095;50.992;6.798;2023-01-13T05:24:52;11.75;;;3.40;;
2177;SDS011;1095;50.992;6.798;2023-01-13T05:27:36;14.20;;;3.30;;
2177;SDS011;1095;50.992;6.798;2023-01-13T05:30:03;7.88;;;2.97;;
2177;SDS011;1095;50.992;6.798;2023-01-13T05:32:31;12.80;;;3.45;;
2177;SDS011;1095;50.992;6.798;2023-01-13T05:34:57;13.90;;;3.38;;
2177;SDS011;1095;50.992;6.798;2023-01-13T05:37:24;9.23;;;2.85;;
2177;SDS011;1095;50.992;6.798;2023-01-13T05:39:53;12.93;;;3.20;;
2177;SDS011;1095;50.992;6.798;2023-01-13T05:42:37;9.52;;;2.58;;
2177;SDS011;1095;50.992;6.798;2023-01-13T05:45:21;11.65;;;3.15;;
2177;SDS011;1095;50.992;6.798;2023-01-13T05:47:48;12.65;;;3.42;;
2177;SDS011;1095;50.992;6.798;2023-01-13T05:50:15;13.25;;;2.95;;
2177;SDS011;1095;50.992;6.798;2023-01-13T05:52:42;12.25;;;3.33;;
2177;SDS011;1095;50.992;6.798;2023-01-13T05:55:10;6.15;;;2.65;;
2177;SDS011;1095;50.992;6.798;2023-01-13T05:57:37;12.65;;;2.95;;
2177;SDS011;1095;50.992;6.798;2023-01-13T06:00:04;7.13;;;2.92;;
2177;SDS011;1095;50.992;6.798;2023-01-13T06:02:31;10.57;;;3.20;;
2177;SDS011;1095;50.992;6.798;2023-01-13T06:04:58;10.07;;;3.38;;
2177;SDS011;1095;50.992;6.798;2023-01-13T06:07:25;6.25;;;2.70;;
2177;SDS011;1095;50.992;6.798;2023-01-13T06:09:51;9.80;;;2.60;;
2177;SDS011;1095;50.992;6.798;2023-01-13T06:12:19;7.22;;;2.38;;
2177;SDS011;1095;50.992;6.798;2023-01-13T06:14:46;11.65;;;3.13;;
2177;SDS011;1095;50.992;6.798;2023-01-13T06:17:13;9.20;;;3.00;;
2177;SDS011;1095;50.992;6.798;2023-01-13T06:19:42;8.23;;;2.50;;
2177;SDS011;1095;50.992;6.798;2023-01-13T06:22:10;6.10;;;2.33;;
2177;SDS011;1095;50.992;6.798;2023-01-13T06:24:40;7.45;;;2.72;;
2177;SDS011;1095;50.992;6.798;2023-01-13T06:27:07;13.50;;;3.45;;
2177;SDS011;1095;50.992;6.798;2023-01-13T06:29:35;9.13;;;3.08;;
2177;SDS011;1095;50.992;6.798;2023-01-13T06:32:03;8.52;;;2.65;;
2177;SDS011;1095;50.992;6.798;2023-01-13T06:34:32;6.25;;;2.80;;
2177;SDS011;1095;50.992;6.798;2023-01-13T06:37:00;10.07;;;3.13;;
2177;SDS011;1095;50.992;6.798;2023-01-13T06:39:29;8.65;;;2.50;;
2177;SDS011;1095;50.992;6.798;2023-01-13T06:41:57;10.50;;;2.85;;
2177;SDS011;1095;50.992;6.798;2023-01-13T06:44:43;6.03;;;2.67;;
2177;SDS011;1095;50.992;6.798;2023-01-13T06:47:11;11.00;;;2.83;;
2177;SDS011;1095;50.992;6.798;2023-01-13T06:49:37;14.30;;;2.97;;
2177;SDS011;1095;50.992;6.798;2023-01-13T06:52:04;9.30;;;3.28;;
2177;SDS011;1095;50.992;6.798;2023-01-13T06:54:31;8.20;;;2.60;;
2177;SDS011;1095;50.992;6.798;2023-01-13T06:56:58;15.98;;;4.57;;
2177;SDS011;1095;50.992;6.798;2023-01-13T06:59:25;8.90;;;2.85;;
2177;SDS011;1095;50.992;6.798;2023-01-13T07:01:57;9.93;;;3.03;;
2177;SDS011;1095;50.992;6.798;2023-01-13T07:04:24;9.70;;;2.75;;
2177;SDS011;1095;50.992;6.798;2023-01-13T07:06:54;8.02;;;2.40;;
2177;SDS011;1095;50.992;6.798;2023-01-13T07:09:21;10.30;;;3.60;;
2177;SDS011;1095;50.992;6.798;2023-01-13T07:11:47;9.45;;;2.53;;
2177;SDS011;1095;50.992;6.798;2023-01-13T07:14:16;11.88;;;2.63;;
2177;SDS011;1095;50.992;6.798;2023-01-13T07:17:01;9.45;;;2.72;;
2177;SDS011;1095;50.992;6.798;2023-01-13T07:19:28;5.30;;;2.22;;
2177;SDS011;1095;50.992;6.798;2023-01-13T07:21:54;7.68;;;2.25;;
2177;SDS011;1095;50.992;6.798;2023-01-13T07:24:21;10.40;;;2.75;;
2177;SDS011;1095;50.992;6.798;2023-01-13T07:26:49;8.13;;;2.80;;
2177;SDS011;1095;50.992;6.798;2023-01-13T07:29:16;6.65;;;2.97;;
2177;SDS011;1095;50.992;6.798;2023-01-13T07:31:42;7.82;;;3.13;;
2177;SDS011;1095;50.992;6.798;2023-01-13T07:34:11;4.90;;;2.28;;
2177;SDS011;1095;50.992;6.798;2023-01-13T07:36:38;8.32;;;3.22;;
2177;SDS011;1095;50.992;6.798;2023-01-13T07:42:06;7.88;;;2.50;;
2177;SDS011;1095;50.992;6.798;2023-01-13T07:45:07;13.65;;;2.60;;
2177;SDS011;1095;50.992;6.798;2023-01-13T07:47:34;8.68;;;2.70;;
2177;SDS011;1095;50.992;6.798;2023-01-13T07:50:06;6.20;;;2.13;;
2177;SDS011;1095;50.992;6.798;2023-01-13T07:52:37;10.35;;;3.17;;
2177;SDS011;1095;50.992;6.798;2023-01-13T07:55:04;6.03;;;2.08;;
2177;SDS011;1095;50.992;6.798;2023-01-13T07:57:31;7.55;;;3.05;;
2177;SDS011;1095;50.992;6.798;2023-01-13T07:59:57;9.35;;;3.10;;
2177;SDS011;1095;50.992;6.798;2023-01-13T08:02:24;9.30;;;3.20;;
2177;SDS011;1095;50.992;6.798;2023-01-13T08:04:50;12.40;;;3.40;;
2177;SDS011;1095;50.992;6.798;2023-01-13T08:07:18;9.65;;;2.80;;
2177;SDS011;1095;50.992;6.798;2023-01-13T08:09:45;8.18;;;2.97;;
2177;SDS011;1095;50.992;6.798;2023-01-13T08:12:12;13.68;;;4.82;;
2177;SDS011;1095;50.992;6.798;2023-01-13T08:14:56;10.00;;;3.10;;
2177;SDS011;1095;50.992;6.798;2023-01-13T08:17:23;10.23;;;3.95;;
2177;SDS011;1095;50.992;6.798;2023-01-13T08:19:49;11.68;;;3.30;;
2177;SDS011;1095;50.992;6.798;2023-01-13T08:22:16;11.40;;;3.40;;
2177;SDS011;1095;50.992;6.798;2023-01-13T08:24:48;13.50;;;3.75;;
2177;SDS011;1095;50.992;6.798;2023-01-13T08:27:14;27.90;;;4.65;;
2177;SDS011;1095;50.992;6.798;2023-01-13T08:29:41;19.23;;;4.25;;
2177;SDS011;1095;50.992;6.798;2023-01-13T08:32:08;19.60;;;4.53;;
2177;SDS011;1095;50.992;6.798;2023-01-13T08:34:35;12.75;;;3.33;;
2177;SDS011;1095;50.992;6.798;2023-01-13T08:37:01;13.73;;;3.72;;
2177;SDS011;1095;50.992;6.798;2023-01-13T08:39:28;13.98;;;3.72;;
2177;SDS011;1095;50.992;6.798;2023-01-13T08:41:56;12.93;;;3.50;;
2177;SDS011;1095;50.992;6.798;2023-01-13T08:44:24;15.57;;;3.92;;
2177;SDS011;1095;50.992;6.798;2023-01-13T08:46:51;14.48;;;3.55;;
2177;SDS011;1095;50.992;6.798;2023-01-13T08:49:18;13.25;;;3.53;;
2177;SDS011;1095;50.992;6.798;2023-01-13T08:51:45;16.00;;;4.15;;
2177;SDS011;1095;50.992;6.798;2023-01-13T08:54:12;17.73;;;4.50;;
2177;SDS011;1095;50.992;6.798;2023-01-13T08:56:39;16.48;;;4.07;;
2177;SDS011;1095;50.992;6.798;2023-01-13T08:59:09;28.85;;;5.28;;
2177;SDS011;1095;50.992;6.798;2023-01-13T09:01:37;16.40;;;3.97;;
2177;SDS011;1095;50.992;6.798;2023-01-13T09:04:05;14.93;;;3.53;;
2177;SDS011;1095;50.992;6.798;2023-01-13T09:06:32;13.75;;;4.20;;
2177;SDS011;1095;50.992;6.798;2023-01-13T09:08:59;17.52;;;3.83;;
2177;SDS011;1095;50.992;6.798;2023-01-13T09:11:28;19.95;;;5.05;;
2177;SDS011;1095;50.992;6.798;2023-01-13T09:14:20;15.25;;;4.68;;
2177;SDS011;1095;50.992;6.798;2023-01-13T09:16:48;12.85;;;3.88;;
2177;SDS011;1095;50.992;6.798;2023-01-13T09:19:15;19.48;;;4.55;;
2177;SDS011;1095;50.992;6.798;2023-01-13T09:21:42;23.88;;;4.55;;
2177;SDS011;1095;50.992;6.798;2023-01-13T09:24:08;17.65;;;4.82;;
2177;SDS011;1095;50.992;6.798;2023-01-13T09:26:35;19.60;;;4.68;;
2177;SDS011;1095;50.992;6.798;2023-01-13T09:29:03;13.82;;;3.67;;
2177;SDS011;1095;50.992;6.798;2023-01-13T09:31:31;17.65;;;4.47;;
2177;SDS011;1095;50.992;6.798;2023-01-13T09:33:58;24.67;;;3.97;;
2177;SDS011;1095;50.992;6.798;2023-01-13T09:36:42;19.88;;;4.20;;
2177;SDS011;1095;50.992;6.798;2023-01-13T09:39:09;19.60;;;4.65;;
2177;SDS011;1095;50.992;6.798;2023-01-13T09:41:40;17.52;;;4.03;;
2177;SDS011;1095;50.992;6.798;2023-01-13T09:44:28;13.90;;;3.92;;
2177;SDS011;1095;50.992;6.798;2023-01-13T09:47:08;18.08;;;4.10;;
2177;SDS011;1095;50.992;6.798;2023-01-13T09:49:45;15.32;;;5.00;;
2177;SDS011;1095;50.992;6.798;2023-01-13T09:52:12;28.65;;;7.82;;
2177;SDS011;1095;50.992;6.798;2023-01-13T09:54:43;18.23;;;5.32;;
2177;SDS011;1095;50.992;6.798;2023-01-13T09:57:14;17.30;;;4.13;;
2177;SDS011;1095;50.992;6.798;2023-01-13T09:59:42;20.40;;;5.15;;
2177;SDS011;1095;50.992;6.798;2023-01-13T10:02:18;18.23;;;4.95;;
2177;SDS011;1095;50.992;6.798;2023-01-13T10:05:08;14.07;;;4.28;;
2177;SDS011;1095;50.992;6.798;2023-01-13T10:07:41;19.75;;;4.78;;
2177;SDS011;1095;50.992;6.798;2023-01-13T10:10:14;29.15;;;5.90;;
2177;SDS011;1095;50.992;6.798;2023-01-13T10:12:51;23.92;;;5.75;;
2177;SDS011;1095;50.992;6.798;2023-01-13T10:15:35;18.90;;;5.05;;
2177;SDS011;1095;50.992;6.798;2023-01-13T10:18:04;16.58;;;4.20;;
2177;SDS011;1095;50.992;6.798;2023-01-13T10:20:41;20.83;;;4.53;;
2177;SDS011;1095;50.992;6.798;2023-01-13T10:23:22;17.42;;;4.35;;
2177;SDS011;1095;50.992;6.798;2023-01-13T10:26:03;16.63;;;4.25;;
2177;SDS011;1095;50.992;6.798;2023-01-13T10:28:49;11.38;;;3.70;;
2177;SDS011;1095;50.992;6.798;2023-01-13T10:31:16;16.95;;;4.15;;
2177;SDS011;1095;50.992;6.798;2023-01-13T10:33:47;16.70;;;4.15;;
2177;SDS011;1095;50.992;6.798;2023-01-13T10:36:22;15.57;;;3.90;;
2177;SDS011;1095;50.992;6.798;2023-01-13T10:38:49;18.88;;;4.97;;
2177;SDS011;1095;50.992;6.798;2023-01-13T10:41:17;12.00;;;4.30;;
2177;SDS011;1095;50.992;6.798;2023-01-13T10:43:56;16.60;;;4.40;;
2177;SDS011;1095;50.992;6.798;2023-01-13T10:46:25;14.32;;;4.90;;
2177;SDS011;1095;50.992;6.798;2023-01-13T10:48:55;19.90;;;4.28;;
2177;SDS011;1095;50.992;6.798;2023-01-13T10:51:23;13.20;;;4.13;;
2177;SDS011;1095;50.992;6.798;2023-01-13T10:53:53;20.50;;;4.55;;
2177;SDS011;1095;50.992;6.798;2023-01-13T10:56:23;20.30;;;3.88;;
2177;SDS011;1095;50.992;6.798;2023-01-13T10:59:14;12.57;;;3.72;;
2177;SDS011;1095;50.992;6.798;2023-01-13T11:01:50;18.23;;;4.93;;
2177;SDS011;1095;50.992;6.798;2023-01-13T11:04:28;20.55;;;4.57;;
2177;SDS011;1095;50.992;6.798;2023-01-13T11:06:57;20.65;;;4.70;;
2177;SDS011;1095;50.992;6.798;2023-01-13T11:09:24;18.05;;;5.00;;
2177;SDS011;1095;50.992;6.798;2023-01-13T11:11:52;19.90;;;5.03;;
2177;SDS011;1095;50.992;6.798;2023-01-13T11:14:21;22.65;;;4.25;;
2177;SDS011;1095;50.992;6.798;2023-01-13T11:17:02;19.23;;;4.85;;
2177;SDS011;1095;50.992;6.798;2023-01-13T11:19:49;20.98;;;5.80;;
2177;SDS011;1095;50.992;6.798;2023-01-13T11:22:19;23.13;;;5.32;;
2177;SDS011;1095;50.992;6.798;2023-01-13T11:24:53;19.48;;;5.03;;
2177;SDS011;1095;50.992;6.798;2023-01-13T11:27:31;22.77;;;5.28;;
2177;SDS011;1095;50.992;6.798;2023-01-13T11:30:08;20.52;;;5.18;;
2177;SDS011;1095;50.992;6.798;2023-01-13T11:32:51;19.67;;;5.10;;
2177;SDS011;1095;50.992;6.798;2023-01-13T11:35:26;24.33;;;4.97;;
2177;SDS011;1095;50.992;6.798;2023-01-13T11:37:58;24.98;;;5.22;;
2177;SDS011;1095;50.992;6.798;2023-01-13T11:40:32;19.60;;;4.57;;
2177;SDS011;1095;50.992;6.798;2023-01-13T11:43:03;47.10;;;7.45;;
2177;SDS011;1095;50.992;6.798;2023-01-13T11:45:40;35.78;;;5.43;;
2177;SDS011;1095;50.992;6.798;2023-01-13T11:48:11;24.33;;;5.30;;
2177;SDS011;1095;50.992;6.798;2023-01-13T11:50:43;25.42;;;5.75;;
2177;SDS011;1095;50.992;6.798;2023-01-13T11:53:30;23.40;;;4.95;;
2177;SDS011;1095;50.992;6.798;2023-01-13T11:56:15;21.70;;;4.15;;
2177;SDS011;1095;50.992;6.798;2023-01-13T12:01:59;14.10;;;3.88;;
2177;SDS011;1095;50.992;6.798;2023-01-13T12:04:37;20.23;;;4.40;;
2177;SDS011;1095;50.992;6.798;2023-01-13T12:07:14;10.73;;;3.80;;
2177;SDS011;1095;50.992;6.798;2023-01-13T12:09:48;13.80;;;3.45;;
2177;SDS011;1095;50.992;6.798;2023-01-13T12:12:30;15.32;;;5.15;;
2177;SDS011;1095;50.992;6.798;2023-01-13T12:15:17;17.45;;;3.80;;
2177;SDS011;1095;50.992;6.798;2023-01-13T12:17:56;17.85;;;4.43;;
2177;SDS011;1095;50.992;6.798;2023-01-13T12:20:38;10.27;;;3.42;;
2177;SDS011;1095;50.992;6.798;2023-01-13T12:23:14;12.50;;;3.42;;
2177;SDS011;1095;50.992;6.798;2023-01-13T12:25:58;12.07;;;3.92;;
2177;SDS011;1095;50.992;6.798;2023-01-13T12:28:31;13.05;;;3.47;;
2177;SDS011;1095;50.992;6.798;2023-01-13T12:31:07;16.20;;;4.15;;
2177;SDS011;1095;50.992;6.798;2023-01-13T12:33:38;12.55;;;3.60;;
2177;SDS011;1095;50.992;6.798;2023-01-13T12:36:14;16.45;;;4.03;;
2177;SDS011;1095;50.992;6.798;2023-01-13T12:38:55;11.18;;;3.47;;
2177;SDS011;1095;50.992;6.798;2023-01-13T12:41:27;10.52;;;3.42;;
2177;SDS011;1095;50.992;6.798;2023-01-13T12:44:00;11.18;;;3.53;;
2177;SDS011;1095;50.992;6.798;2023-01-13T12:46:45;16.70;;;4.03;;
2177;SDS011;1095;50.992;6.798;2023-01-13T12:49:25;11.93;;;4.00;;
2177;SDS011;1095;50.992;6.798;2023-01-13T13:00:53;11.10;;;3.78;;
2177;SDS011;1095;50.992;6.798;2023-01-13T13:03:27;17.00;;;4.40;;
2177;SDS011;1095;50.992;6.798;2023-01-13T13:05:57;10.02;;;3.90;;
2177;SDS011;1095;50.992;6.798;2023-01-13T13:08:49;11.82;;;3.90;;
2177;SDS011;1095;50.992;6.798;2023-01-13T13:11:34;19.55;;;4.57;;
2177;SDS011;1095;50.992;6.798;2023-01-13T13:17:41;12.05;;;3.63;;
2177;SDS011;1095;50.992;6.798;2023-01-13T13:26:15;13.20;;;3.58;;
2177;SDS011;1095;50.992;6.798;2023-01-13T13:28:59;12.27;;;4.07;;
2177;SDS011;1095;50.992;6.798;2023-01-13T13:31:55;13.52;;;3.75;;
2177;SDS011;1095;50.992;6.798;2023-01-13T13:34:48;10.48;;;3.22;;
2177;SDS011;1095;50.992;6.798;2023-01-13T13:37:45;12.15;;;3.67;;
2177;SDS011;1095;50.992;6.798;2023-01-13T13:43:23;11.48;;;2.83;;
2177;SDS011;1095;50.992;6.798;2023-01-13T13:46:21;10.18;;;3.50;;
2177;SDS011;1095;50.992;6.798;2023-01-13T13:49:07;11.00;;;3.10;;
2177;SDS011;1095;50.992;6.798;2023-01-13T13:51:38;15.32;;;3.97;;
2177;SDS011;1095;50.992;6.798;2023-01-13T13:56:51;11.60;;;3.60;;
2177;SDS011;1095;50.992;6.798;2023-01-13T13:59:19;11.48;;;3.22;;
2177;SDS011;1095;50.992;6.798;2023-01-13T14:01:49;12.00;;;3.47;;
2177;SDS011;1095;50.992;6.798;2023-01-13T14:04:25;24.65;;;4.10;;
2177;SDS011;1095;50.992;6.798;2023-01-13T14:06:56;9.02;;;3.47;;
2177;SDS011;1095;50.992;6.798;2023-01-13T14:09:37;14.63;;;3.83;;
2177;SDS011;1095;50.992;6.798;2023-01-13T14:12:13;9.38;;;3.22;;
2177;SDS011;1095;50.992;6.798;2023-01-13T14:14:45;13.25;;;3.83;;
2177;SDS011;1095;50.992;6.798;2023-01-13T14:17:17;13.77;;;4.28;;
2177;SDS011;1095;50.992;6.798;2023-01-13T14:19:55;14.55;;;4.38;;
2177;SDS011;1095;50.992;6.798;2023-01-13T14:22:30;13.85;;;4.13;;
2177;SDS011;1095;50.992;6.798;2023-01-13T14:24:57;13.52;;;4.35;;
2177;SDS011;1095;50.992;6.798;2023-01-13T14:27:26;15.15;;;4.05;;
2177;SDS011;1095;50.992;6.798;2023-01-13T14:29:54;12.27;;;4.72;;
2177;SDS011;1095;50.992;6.798;2023-01-13T14:32:24;13.13;;;4.50;;
2177;SDS011;1095;50.992;6.798;2023-01-13T14:34:55;17.15;;;4.25;;
2177;SDS011;1095;50.992;6.798;2023-01-13T14:37:23;13.00;;;3.55;;
2177;SDS011;1095;50.992;6.798;2023-01-13T14:39:52;12.35;;;2.88;;
2177;SDS011;1095;50.992;6.798;2023-01-13T14:42:19;14.73;;;4.13;;
2177;SDS011;1095;50.992;6.798;2023-01-13T14:44:47;11.73;;;4.15;;
2177;SDS011;1095;50.992;6.798;2023-01-13T14:47:19;11.52;;;3.80;;
2177;SDS011;1095;50.992;6.798;2023-01-13T14:49:53;14.77;;;4.25;;
2177;SDS011;1095;50.992;6.798;2023-01-13T14:52:27;19.48;;;4.18;;
2177;SDS011;1095;50.992;6.798;2023-01-13T14:57:51;19.75;;;4.05;;
2177;SDS011;1095;50.992;6.798;2023-01-13T15:00:20;16.23;;;4.43;;
2177;SDS011;1095;50.992;6.798;2023-01-13T15:03:04;18.33;;;3.88;;
2177;SDS011;1095;50.992;6.798;2023-01-13T15:08:58;16.92;;;4.28;;
2177;SDS011;1095;50.992;6.798;2023-01-13T15:15:22;16.77;;;4.07;;
2177;SDS011;1095;50.992;6.798;2023-01-13T15:17:51;16.27;;;5.82;;
2177;SDS011;1095;50.992;6.798;2023-01-13T15:20:22;24.23;;;5.95;;
2177;SDS011;1095;50.992;6.798;2023-01-13T15:22:50;20.40;;;5.20;;
2177;SDS011;1095;50.992;6.798;2023-01-13T15:25:17;14.70;;;4.35;;
2177;SDS011;1095;50.992;6.798;2023-01-13T15:27:48;25.13;;;4.55;;
2177;SDS011;1095;50.992;6.798;2023-01-13T15:30:24;19.30;;;4.80;;
2177;SDS011;1095;50.992;6.798;2023-01-13T15:33:11;14.25;;;3.97;;
2177;SDS011;1095;50.992;6.798;2023-01-13T15:35:40;25.58;;;4.43;;
2177;SDS011;1095;50.992;6.798;2023-01-13T15:38:09;15.32;;;4.80;;
2177;SDS011;1095;50.992;6.798;2023-01-13T15:40:37;16.95;;;3.88;;
2177;SDS011;1095;50.992;6.798;2023-01-13T15:43:07;23.35;;;4.45;;
2177;SDS011;1095;50.992;6.798;2023-01-13T15:45:55;19.63;;;4.43;;
2177;SDS011;1095;50.992;6.798;2023-01-13T15:48:39;18.27;;;4.85;;
2177;SDS011;1095;50.992;6.798;2023-01-13T15:51:05;21.42;;;4.90;;
2177;SDS011;1095;50.992;6.798;2023-01-13T15:53:37;25.40;;;5.28;;
2177;SDS011;1095;50.992;6.798;2023-01-13T15:56:04;19.35;;;5.32;;
2177;SDS011;1095;50.992;6.798;2023-01-13T15:58:41;23.42;;;5.43;;
2177;SDS011;1095;50.992;6.798;2023-01-13T16:01:08;20.92;;;5.57;;
2177;SDS011;1095;50.992;6.798;2023-01-13T16:03:38;26.70;;;5.43;;
2177;SDS011;1095;50.992;6.798;2023-01-13T16:06:04;24.20;;;5.53;;
2177;SDS011;1095;50.992;6.798;2023-01-13T16:08:39;22.38;;;6.07;;
2177;SDS011;1095;50.992;6.798;2023-01-13T16:11:09;30.35;;;6.00;;
2177;SDS011;1095;50.992;6.798;2023-01-13T16:13:38;29.15;;;6.57;;
2177;SDS011;1095;50.992;6.798;2023-01-13T16:16:11;26.58;;;7.30;;
2177;SDS011;1095;50.992;6.798;2023-01-13T16:18:43;23.75;;;6.38;;
2177;SDS011;1095;50.992;6.798;2023-01-13T16:21:10;21.40;;;5.57;;
2177;SDS011;1095;50.992;6.798;2023-01-13T16:26:22;36.15;;;10.18;;